Hit Tracker is now ESPN Home Run Tracker! Hit Tracker founder Greg Rybarczyk is now collaborating with the ESPN Stats & Information Group to continue tracking all MLB home runs, and helping baseball fans know "How Far It Really Went!™" Please credit any information on this site to ESPN Stats & Information Group. For more information and analysis on home runs, please contact founder Greg Rybarczyk. E-Mail ESPN Home Run Tracker
Main Page | Ballparks | Park Overlays | Glossary | Highlight Homers | Feedback | Bio | 3 Types of HR's | AAA Home Run Derby Last Updated: September 1, 2015, 8:48 am PST
Welcome to the ESPN Home Run Tracker! Check out the ESPN MLB Scoreboard throughout the 2015 season! Contact us at grybar@hittrackeronline.com.
Season:
Ballpark detail for Nationals Park
Ballpark # of Home Runs HR per game Avg.
True
Distance
Avg.
Speed
Off
Bat
Avg.
Std.
Dist.
Nationals Park 120 1.90 405.2 104.1 403

Scatter Plot of Home Runs Nationals Park
 Overlay Ballpark:
Without range rings   With range rings

2015 Season Home Runs for Nationals Park
Click headers to sort
Date Video Path Hitter Hitter
Team
Pitcher Pitcher
Team
INN Ballpark Type/
Luck
True
Dist.
Speed
Off
Bat
Elev.
Angle
Horiz.
Angle
Apex Impact Due To: Std.
Dist.
#
Parks
Wind Temp. Alt. ^
05/04/15 Video View Desmond, Ian WSH Morris, Bryan MIA 8 Nationals Pa... PL 439 113.3 19.1 92.7 62 -1 -1 -1 440 28
05/08/15 Video View Espinosa, Danny WSH Cunniff, Brandon ATL 7 Nationals Pa... JE 391 99.6 28.0 101.5 88 -1 0 0 391 19
05/08/15 Video View Harper, Bryce WSH Perez, Williams ATL 8 Nationals Pa... PL 412 106.3 25.5 74.5 82 -1 0 0 412 30
05/08/15 Video View Espinosa, Danny WSH Cahill, Trevor ATL 8 Nationals Pa... JE 388 99.8 26.2 99.4 83 -2 0 0 390 17
05/09/15 Video View Lobaton, Jose WSH Teheran, Julio ATL 2 Nationals Pa... ND 423 108.2 29.2 67.9 101 1 2 0 421 30
05/09/15 Video View Zimmerman, Ryan WSH Teheran, Julio ATL 5 Nationals Pa... JE 364 106.7 22.4 121.8 51 1 0 0 363 20
05/20/15 Video View Desmond, Ian WSH Warren, Adam NYY 1 Nationals Pa... PL 433 104.7 26.4 88.8 91 4 0 0 429 27
05/20/15 Video View Moore, Tyler WSH Warren, Adam NYY 4 Nationals Pa... JE 365 102.5 25.4 119.9 63 1 0 0 364 20
05/19/15 Video View Zimmerman, Ryan WSH Miller, Andrew NYY 10 Nationals Pa... PL 361 100.8 27.4 54.1 65 3 1 0 358 29
05/19/15 Video View Harper, Bryce WSH Eovaldi, Nathan NYY 1 Nationals Pa... JE 400 106.1 20.7 84.4 58 -2 0 0 402 10
05/19/15 Video View Desmond, Ian WSH Eovaldi, Nathan NYY 1 Nationals Pa... PL 406 104.5 23.2 81.8 68 0 1 0 405 21
05/19/15 Video View Teixeira, Mark NYY Gonzalez, Gio WSH 5 Nationals Pa... ND 415 108.3 28.9 119.2 91 2 2 0 411 30
05/19/15 Video View Ramos, Wilson WSH Carpenter, David NYY 6 Nationals Pa... ND 427 106.8 31.2 107.3 116 4 3 0 420 30
05/08/15 Video View Werth, Jayson WSH Stults, Eric ATL 4 Nationals Pa... PL 409 105.5 31.4 110.6 111 -1 1 0 409 30
05/08/15 Video View Harper, Bryce WSH Stults, Eric ATL 6 Nationals Pa... JE 396 98.9 30.6 95.4 106 -1 1 0 396 7
05/04/15 Video View Bour, Justin MIA Zimmermann, Jordan WSH 7 Nationals Pa... JE 370 97.5 32.7 114.5 96 4 2 0 365 23
05/06/15 Video View Harper, Bryce WSH Koehler, Tom MIA 2 Nationals Pa... PL 404 102.7 30.4 104.1 106 -3 1 0 405 30
05/06/15 Video View Harper, Bryce WSH Koehler, Tom MIA 3 Nationals Pa... ND 431 109.3 26.9 74.1 98 -4 1 0 434 30
05/06/15 Video View Harper, Bryce WSH Koehler, Tom MIA 5 Nationals Pa... ND 441 110.8 26.9 75.1 103 -5 1 0 444 30
05/06/15 Video View Stanton, Giancarlo MIA Scherzer, Max WSH 8 Nationals Pa... ND 427 109.0 32.2 105.7 133 -5 2 0 430 30
04/06/15 Video View Harper, Bryce WSH Colon, Bartolo NYM 4 Nationals Pa... PL 405 99.4 29.5 80.9 90 11 1 0 395 15
04/08/15 Video View Zimmerman, Ryan WSH deGrom, Jacob NYM 1 Nationals Pa... PL 385 102.2 33.8 109.1 121 1 -6 0 390 30
04/16/15 Video View Escobar, Yunel WSH Hamels, Cole PHI 1 Nationals Pa... PL 400 99.7 29.9 95.9 103 0 0 0 400 12
04/16/15 Video View Taylor, Michael WSH Hamels, Cole PHI 5 Nationals Pa... PL 419 103.3 28.6 100.7 95 6 -1 0 413 30
04/17/15 Video View Harper, Bryce WSH O'Sullivan, Sean PHI 1 Nationals Pa... PL 412 101.9 26.3 87.5 89 0 1 0 411 19
04/17/15 Video View Espinosa, Danny WSH O'Sullivan, Sean PHI 4 Nationals Pa... JE 408 102.0 24.9 87.2 79 1 0 0 407 8
04/18/15 Video View Harper, Bryce WSH Harang, Aaron PHI 5 Nationals Pa... ND 452 109.0 25.6 87.9 100 0 1 0 452 30
04/21/15 Video View Escobar, Yunel WSH Villanueva, Carlos STL 10 Nationals Pa... PL 398 104.6 24.0 103.6 71 1 -1 0 398 27
04/22/15 Video View Carpenter, Matt STL Fister, Doug WSH 1 Nationals Pa... ND 407 107.6 27.8 61.5 82 3 -2 0 405 30
04/22/15 Video View Wong, Kolten STL Fister, Doug WSH 2 Nationals Pa... PL 400 101.3 29.3 73.1 89 8 -2 0 394 30
04/22/15 Video View Adams, Matt STL Martin, Rafael WSH 9 Nationals Pa... ND 420 107.0 27.7 71.0 89 4 -2 0 418 30
05/22/15 Video View Harper, Bryce WSH O'Sullivan, Sean PHI 2 Nationals Pa... JE/L 351 97.8 29.2 126.3 72 2 0 0 349 23
05/23/15 Video View Franco, Maikel PHI Strasburg, Stephen WSH 3 Nationals Pa... PL 404 101.5 26.4 82.4 84 1 0 0 403 19
05/23/15 Video View Howard, Ryan PHI Cole, A.J. WSH 5 Nationals Pa... JE/L 402 98.9 34.6 90.2 124 13 1 0 388 0
06/02/15 Video View Pillar, Kevin TOR Scherzer, Max WSH 2 Nationals Pa... PL 379 100.1 31.5 109.8 102 -3 -2 0 383 30
06/02/15 Video View Pillar, Kevin TOR Scherzer, Max WSH 6 Nationals Pa... JE 355 97.4 29.3 120.2 74 2 -1 0 354 26
06/03/15 Video View Bautista, Jose TOR Hill, Taylor WSH 9 Nationals Pa... JE 400 105.3 21.5 97.0 65 0 0 0 401 10
06/05/15 Video View Espinosa, Danny WSH Wada, Tsuyoshi CHC 2 Nationals Pa... ND 424 106.8 30.0 103.5 116 -4 0 0 427 30
06/05/15 Video View Rizzo, Anthony CHC Roark, Tanner WSH 4 Nationals Pa... ND 402 109.2 25.6 61.5 73 -1 0 0 403 30
06/05/15 Video View Rizzo, Anthony CHC Roark, Tanner WSH 6 Nationals Pa... PL 432 106.1 25.2 87.5 94 -2 0 0 434 27
06/05/15 Video View Montero, Miguel CHC Roark, Tanner WSH 6 Nationals Pa... JE 413 102.3 27.3 90.5 101 -4 0 0 417 23
06/06/15 Video View Ramos, Wilson WSH Hammel, Jason CHC 2 Nationals Pa... ND 450 110.9 26.0 98.3 106 -7 1 0 456 30
06/06/15 Video View Harper, Bryce WSH Hammel, Jason CHC 9 Nationals Pa... JE 385 100.5 27.2 101.7 95 -10 1 0 394 27
06/07/15 Video View Desmond, Ian WSH Hendricks, Kyle CHC 2 Nationals Pa... PL 400 100.5 28.9 79.8 95 0 1 0 399 25
06/17/15 Video View Souza Jr., Steven TB Zimmermann, Jordan WSH 5 Nationals Pa... PL 417 104.0 32.3 100.3 124 1 2 0 414 30
06/17/15 Video View Casali, Curt TB Zimmermann, Jordan WSH 5 Nationals Pa... PL 412 107.5 25.9 110.4 79 1 1 0 410 30
06/18/15 Video View Butler, Joey TB Fister, Doug WSH 6 Nationals Pa... PL 357 96.2 35.3 60.9 102 5 1 0 350 27
06/20/15 Video View Harper, Bryce WSH Liriano, Francisco PIT 4 Nationals Pa... PL 433 104.1 26.5 90.2 86 6 2 0 426 26
06/21/15 Video View Harper, Bryce WSH Morton, Charlie PIT 1 Nationals Pa... ND 390 100.7 32.7 59.6 93 14 3 0 374 30
06/21/15 Video View Escobar, Yunel WSH Morton, Charlie PIT 1 Nationals Pa... PL 373 102.2 28.1 123.5 74 1 2 0 371 30
06/21/15 Video View Hart, Corey PIT Rivero, Felipe WSH 9 Nationals Pa... ND 446 108.4 31.4 105.5 123 13 5 0 429 30
06/23/15 Video View Maybin, Cameron ATL Thornton, Matt WSH 8 Nationals Pa... JE 415 103.8 24.0 92.4 82 0 0 0 415 18
06/25/15 Video View Desmond, Ian WSH Wisler, Matt ATL 3 Nationals Pa... JE 389 97.5 31.5 82.1 104 2 2 0 385 1
07/03/15 Video View Posey, Buster SF Gonzalez, Gio WSH 7 Nationals Pa... JE 412 101.5 27.5 93.2 95 0 1 0 411 19
07/03/15 Video View Robinson, Clint WSH Peavy, Jake SF 7 Nationals Pa... JE 401 105.7 22.2 80.5 64 0 0 0 402 18
07/04/15 Video View Taylor, Michael WSH Bumgarner, Madison SF 1 Nationals Pa... JE 364 97.9 30.2 116.2 83 0 0 0 363 23
07/04/15 Video View Harper, Bryce WSH Bumgarner, Madison SF 1 Nationals Pa... JE 377 110.9 21.5 59.5 52 0 0 0 378 28
07/05/15 Video View Crawford, Brandon SF Zimmermann, Jordan WSH 4 Nationals Pa... PL 376 101.2 28.4 60.8 75 2 0 0 372 29
07/05/15 Video View Ramos, Wilson WSH Kontos, George SF 6 Nationals Pa... JE 398 105.1 21.8 81.7 63 0 0 0 398 13
07/06/15 Video View Espinosa, Danny WSH DeSclafani, Anthony CIN 6 Nationals Pa... PL 415 105.1 25.9 76.9 81 2 1 0 412 29
07/06/15 Video View Suarez, Eugenio CIN Janssen, Casey WSH 8 Nationals Pa... PL/L 352 95.6 37.5 120.1 110 10 1 0 340 16
07/07/15 Video View Votto, Joey CIN Scherzer, Max WSH 3 Nationals Pa... PL 369 97.1 31.2 61.2 80 9 2 0 358 26
07/17/15 Video View Gonzalez, Adrian LAD Zimmermann, Jordan WSH 4 Nationals Pa... ND 409 105.2 33.8 62.0 112 12 3 0 395 30
07/17/15 Video View Escobar, Yunel WSH Tsao, Chin-hui LAD 5 Nationals Pa... PL 393 101.4 28.9 108.6 89 1 1 0 391 30
07/17/15 Video View Gonzalez, Adrian LAD Roark, Tanner WSH 6 Nationals Pa... JE/L 357 95.3 33.0 117.9 89 4 2 0 350 14
07/17/15 Video View den Dekker, Matt WSH Baez, Pedro LAD 8 Nationals Pa... PL 402 103.4 32.1 62.0 100 10 3 0 390 30
07/18/15 Video View Harper, Bryce WSH Jansen, Kenley LAD 9 Nationals Pa... ND 438 109.9 28.8 70.7 103 1 4 0 434 30
07/20/15 Video View Desmond, Ian WSH Torres, Alex NYM 8 Nationals Pa... JE 392 100.1 26.4 79.8 80 0 2 0 391 15
07/21/15 Video View Ramos, Wilson WSH deGrom, Jacob NYM 5 Nationals Pa... JE/L 384 99.9 28.2 71.3 80 1 1 0 381 26
08/03/15 Video View Ahmed, Nick ARI Fister, Doug WSH 3 Nationals Pa... JE 395 106.2 22.2 102.7 59 -1 1 0 395 17
08/03/15 Video View Castillo, Welington ARI Fister, Doug WSH 4 Nationals Pa... PL 418 101.0 30.6 97.1 102 10 3 0 405 22
08/03/15 Video View Peralta, David ARI Fister, Doug WSH 4 Nationals Pa... JE/L 400 97.3 33.0 94.0 107 13 3 0 384 0
08/03/15 Video View Lamb, Jake ARI Papelbon, Jonathan WSH 9 Nationals Pa... JE 387 101.1 27.4 108.7 79 0 2 0 385 30
08/03/15 Video View Zimmerman, Ryan WSH Hudson, Daniel ARI 9 Nationals Pa... ND 416 105.8 30.3 116.8 93 11 2 0 403 30
08/04/15 Video View Escobar, Yunel WSH Corbin, Patrick ARI 1 Nationals Pa... PL 418 101.9 27.6 88.8 94 2 1 0 415 22
08/05/15 Video View Castillo, Welington ARI Thornton, Matt WSH 8 Nationals Pa... PL 432 104.4 29.1 96.3 106 4 2 0 426 30
08/05/15 Video View Taylor, Michael WSH Hudson, Daniel ARI 9 Nationals Pa... PL 425 103.6 31.3 96.7 118 4 3 0 418 28
08/06/15 Video View Desmond, Ian WSH Hellickson, Jeremy ARI 2 Nationals Pa... PL 407 103.8 24.9 100.2 78 0 1 0 406 27
08/06/15 Video View Saltalamacchia, Jarrod ARI Ross, Joe WSH 5 Nationals Pa... JE 381 101.2 34.3 74.6 128 -9 2 0 388 29
08/06/15 Video View Robinson, Clint WSH Ziegler, Brad ARI 8 Nationals Pa... JE 395 111.6 20.9 70.6 56 0 0 0 395 28
08/07/15 Video View Gonzalez, Carlos COL Storen, Drew WSH 8 Nationals Pa... PL 412 110.8 24.2 66.3 71 -1 1 0 412 30
08/08/15 Video View Arenado, Nolan COL Strasburg, Stephen WSH 4 Nationals Pa... PL 395 101.8 26.7 104.6 80 0 1 0 394 28
08/09/15 Video View Gonzalez, Carlos COL Scherzer, Max WSH 1 Nationals Pa... PL 394 101.0 30.6 67.6 90 8 2 0 384 30
08/09/15 Video View Zimmerman, Ryan WSH Flande, Yohan COL 2 Nationals Pa... JE 418 105.1 22.9 92.3 72 0 0 0 418 21
08/09/15 Video View Werth, Jayson WSH Flande, Yohan COL 2 Nationals Pa... JE 404 105.9 21.5 83.1 61 -1 1 0 404 14
08/09/15 Video View Zimmerman, Ryan WSH Flande, Yohan COL 3 Nationals Pa... PL 426 103.3 28.6 86.6 103 2 2 0 422 26
08/09/15 Video View Descalso, Daniel COL Scherzer, Max WSH 4 Nationals Pa... JE 402 99.8 26.7 86.1 83 1 1 0 399 5
08/09/15 Video View Gonzalez, Carlos COL Scherzer, Max WSH 6 Nationals Pa... ND 436 106.0 27.4 82.7 98 2 2 0 432 30
08/21/15 Video View Harper, Bryce WSH Nelson, Jimmy MIL 6 Nationals Pa... JE 406 106.1 21.4 83.0 65 1 1 0 405 17
08/21/15 Video View Taylor, Michael WSH Lohse, Kyle MIL 7 Nationals Pa... ND 429 109.7 28.2 107.4 106 -8 1 0 435 30
08/21/15 Video View Santana, Domingo MIL Gonzalez, Gio WSH 5 Nationals Pa... JE 360 108.5 21.5 123.7 50 -1 1 0 361 22
08/22/15 Video View Taylor, Michael WSH Jungmann, Taylor MIL 2 Nationals Pa... PL 419 108.3 22.5 79.1 72 2 1 0 416 28
08/22/15 Video View Davis, Khris MIL Ross, Joe WSH 7 Nationals Pa... ND 448 114.0 29.0 113.5 108 -1 1 0 448 30
08/22/15 Video View Rendon, Anthony WSH Goforth, David MIL 7 Nationals Pa... PL 405 102.0 26.2 97.5 86 -2 0 0 406 24
08/23/15 Video View Lucroy, Jonathan MIL Zimmermann, Jordan WSH 1 Nationals Pa... PL 414 102.8 26.3 96.0 88 0 1 0 413 25
08/23/15 Video View Gennett, Scooter MIL Zimmermann, Jordan WSH 5 Nationals Pa... PL 386 100.7 33.2 75.7 120 -8 3 0 390 30
08/23/15 Video View Ramos, Wilson WSH Garza, Matt MIL 5 Nationals Pa... ND 436 106.1 28.9 85.4 115 -4 2 0 437 29
08/23/15 Video View Rendon, Anthony WSH Knebel, Corey MIL 5 Nationals Pa... ND 429 111.1 23.9 106.2 78 -2 1 0 429 30
08/23/15 Video View Davis, Khris MIL Storen, Drew WSH 8 Nationals Pa... PL 414 103.0 29.0 105.3 91 7 2 0 405 30
08/25/15 Video View Gyorko, Jedd SD Strasburg, Stephen WSH 2 Nationals Pa... PL 395 100.9 30.3 107.2 97 2 1 0 392 30
08/25/15 Video View Ramos, Wilson WSH Shields, James SD 2 Nationals Pa... JE 354 100.8 26.1 124.7 62 0 1 0 353 25
08/25/15 Video View Zimmerman, Ryan WSH Norris, Bud SD 6 Nationals Pa... PL 407 108.8 21.6 78.2 62 -1 1 0 407 27
08/25/15 Video View Gyorko, Jedd SD Janssen, Casey WSH 7 Nationals Pa... PL 425 105.1 25.4 96.0 87 0 1 0 424 27
08/26/15 Video View Upton, Justin SD Gonzalez, Gio WSH 3 Nationals Pa... JE 393 114.0 18.1 102.2 48 2 0 0 391 6
08/26/15 Video View Upton, Justin SD Fister, Doug WSH 7 Nationals Pa... PL 396 99.6 29.7 83.2 103 -3 1 0 399 15
08/27/15 Video View Werth, Jayson WSH Cashner, Andrew SD 6 Nationals Pa... JE 393 99.7 27.4 99.9 86 0 0 0 393 15
08/27/15 Video View Zimmerman, Ryan WSH Quackenbush, Kevin SD 7 Nationals Pa... PL 406 101.4 26.7 84.5 89 -1 0 0 407 15
08/28/15 Video View Desmond, Ian WSH Conley, Adam MIA 2 Nationals Pa... PL 398 100.7 28.9 77.8 95 -1 1 0 397 25
08/28/15 Video View Prado, Martin MIA Scherzer, Max WSH 3 Nationals Pa... PL 395 101.2 28.0 103.6 90 -2 1 0 396 30
08/28/15 Video View Ramos, Wilson WSH Conley, Adam MIA 5 Nationals Pa... ND 442 111.4 24.5 102.8 87 -2 1 0 443 30
08/28/15 Video View Ozuna, Marcell MIA Scherzer, Max WSH 4 Nationals Pa... JE 417 108.1 19.9 87.7 63 2 0 0 415 18
08/29/15 Video View Zimmerman, Ryan WSH Koehler, Tom MIA 2 Nationals Pa... ND 434 108.5 24.6 100.4 83 1 1 0 432 30
08/29/15 Video View Robinson, Clint WSH Koehler, Tom MIA 6 Nationals Pa... PL 418 103.2 29.1 100.5 101 3 2 0 413 30
08/29/15 Video View Desmond, Ian WSH Koehler, Tom MIA 6 Nationals Pa... PL 444 106.5 26.9 90.7 101 2 1 0 441 30
08/29/15 Video View Bour, Justin MIA Zimmermann, Jordan WSH 7 Nationals Pa... ND 453 111.3 23.6 82.9 86 0 1 0 451 30
08/30/15 Video View Bour, Justin MIA Strasburg, Stephen WSH 1 Nationals Pa... PL 416 102.4 27.0 84.8 90 1 1 0 414 22
08/30/15 Video View Werth, Jayson WSH Hand, Brad MIA 3 Nationals Pa... PL 398 108.6 22.9 110.2 61 1 0 0 397 30
08/30/15 Video View Dietrich, Derek MIA Strasburg, Stephen WSH 4 Nationals Pa... ND 418 109.8 29.7 56.7 94 1 2 0 415 30
08/30/15 Video View Robinson, Clint WSH Cordier, Erik MIA 6 Nationals Pa... PL 420 107.4 33.2 71.4 130 0 5 0 415 30
05/09/15 Video View Harper, Bryce WSH Martin, Cody ATL 9 Nationals Pa... PL 420 104.6 24.3 84.5 80 2 1 1 418 23


About HitTracker | Contact Us
© 2006-2015 HitTrackerOnline